Schedule Details


Flight Number: CTN4438
Departure: Split / Kastela (LDSP) at 07:55
Arrival: Munich International Airport (EDDM) at 09:35
Route: ZDA L868 GISER L862 SABAD DCT NIPEL DCT REDBU Q112 NAPSA

Weather Information
LDSP 192100Z AUTO 00000KT CAVOK 15/14 Q1018
EDDM 192120Z 12001KT 4500 1500N R08L/0150N R08R/0350V0900D PRFG NSC 08/07 Q1015 BECMG 0800 FG VV001
Schedule Frequency

Route Map